Time;durP1;ratioP1;P1;durP2;ratioP2;P2;SDS_P1;SDS_P2;PMS_P1;PMS_P2;Temp;Humidity;BMP_temperature;BMP_pressure;BME280_temperature;BME280_humidity;BME280_pressure;Samples;Min_cycle;Max_cycle;Signal;HPM_P1;HPM_P2
2023/12/09 08:48:42;;;;;;;;;;;;;;;;;;5063941;27;5419;-65
2023/12/09 08:51:07;;;;;;;;;;;;;;;;;;5034683;28;5103;-75
2023/12/09 08:53:32;;;;;;;;;;;;;;;;;;5035911;28;4883;-76
2023/12/09 08:55:58;;;;;;;;;;;;;;;;;;5037312;28;3421;-67
2023/12/09 08:58:23;;;;;;;;;;;;;;;;;;5042104;28;4513;-66
2023/12/09 09:00:48;;;;;;;;;;;;;;;;;;5044019;28;5185;-69
2023/12/09 09:03:14;;;;;;;;;;;;;;;;;;5041057;28;5155;-64
2023/12/09 09:05:39;;;;;;;;;;;;;;;;;;5031059;28;5474;-67
2023/12/09 09:08:04;;;;;;;;;;;;;;;;;;5034707;28;3487;-67
2023/12/09 09:10:29;;;;;;;;;;;;;;;;;;5040297;28;4990;-69
2023/12/09 09:12:55;;;;;;;;;;;;;;;;;;5029330;28;4474;-65
2023/12/09 09:15:20;;;;;;;;;;;;;;;;;;5033287;28;5054;-68
2023/12/09 09:17:46;;;;;;;;;;;;;;;;;;5034773;28;4800;-67
2023/12/09 09:20:11;;;;;;;;;;;;;;;;;;5040805;28;5019;-65
2023/12/09 09:22:37;;;;;;;;;;;;;;;;;;5036260;28;4005;-65
2023/12/09 09:25:02;;;;;;;;;;;;;;;;;;5036844;28;4778;-67
2023/12/09 09:27:28;;;;;;;;;;;;;;;;;;5034036;28;5194;-66
2023/12/09 09:29:53;;;;;;;;;;;;;;;;;;5035505;28;4866;-69
2023/12/09 09:32:19;;;;;;;;;;;;;;;;;;5033056;28;1784;-67
2023/12/09 09:34:44;;;;;;;;;;;;;;;;;;5042435;28;6055;-67
2023/12/09 09:37:09;;;;;;;;;;;;;;;;;;5037158;28;5348;-69
2023/12/09 09:39:35;;;;;;;;;;;;;;;;;;5035620;28;5171;-67
2023/12/09 09:42:00;;;;;;;;;;;;;;;;;;5041735;28;2048;-65
2023/12/09 09:44:27;;;;;;;;;;;;;;;;;;5019436;28;6072;-66
2023/12/09 09:46:55;;;;;;;;;;;;;;;;;;5045644;28;5081;-65
2023/12/09 09:49:20;;;;;;;;;;;;;;;;;;5037131;28;5194;-71
2023/12/09 09:51:46;;;;;;;;;;;;;;;;;;5037242;28;5082;-65
2023/12/09 09:54:17;;;;;;;;;;;;;;;;;;5027494;28;5105;-66
2023/12/09 09:56:42;;;;;;;;;;;;;;;;;;5034782;28;5051;-67
2023/12/09 09:59:09;;;;;;;;;;;;;;;;;;5037595;28;5175;-67
2023/12/09 10:01:34;;;;;;;;;;;;;;;;;;5020401;28;5259;-65
2023/12/09 10:04:00;;;;;;;;;;;;;;;;;;5025170;28;3578;-68
2023/12/09 10:06:25;;;;;;;;;;;;;;;;;;5020971;28;5121;-68
2023/12/09 10:08:51;;;;;;;;;;;;;;;;;;5025674;28;4809;-69
2023/12/09 10:11:16;;;;;;;;;;;;;;;;;;5024722;28;5125;-67
2023/12/09 10:13:43;;;;;;;;;;;;;;;;;;5024074;28;5098;-66
2023/12/09 10:16:08;;;;;;;;;;;;;;;;;;5025254;28;3349;-68
2023/12/09 10:18:34;;;;;;;;;;;;;;;;;;5020509;28;5409;-66
2023/12/09 10:21:00;;;;;;;;;;;;;;;;;;5027196;28;4493;-66
2023/12/09 10:23:25;;;;;;;;;;;;;;;;;;5027461;28;4650;-67
2023/12/09 10:25:50;;;;;;;;;;;;;;;;;;5019688;28;5733;-69
2023/12/09 10:28:15;;;;;;;;;;;;;;;;;;5017755;28;5119;-68
2023/12/09 10:30:41;;;;;;;;;;;;;;;;;;5046058;28;3344;-70
2023/12/09 10:33:08;;;;;;;;;;;;;;;;;;5016867;28;4542;-68
2023/12/09 10:35:34;;;;;;;;;;;;;;;;;;5020899;28;5245;-67
2023/12/09 10:38:03;;;;;;;;;;;;;;;;;;5014800;28;5113;-73
2023/12/09 10:40:29;;;;;;;;;;;;;;;;;;5017796;28;5020;-67
2023/12/09 10:42:55;;;;;;;;;;;;;;;;;;5016624;28;3173;-70
2023/12/09 10:45:21;;;;;;;;;;;;;;;;;;5008922;28;5004;-66
2023/12/09 10:47:46;;;;;;;;;;;;;;;;;;5016818;28;5131;-72
2023/12/09 10:50:12;;;;;;;;;;;;;;;;;;5020607;28;4530;-67
2023/12/09 10:52:38;;;;;;;;;;;;;;;;;;5017960;28;5010;-68
2023/12/09 10:55:03;;;;;;;;;;;;;;;;;;5024989;28;3562;-70
2023/12/09 10:57:28;;;;;;;;;;;;;;;;;;5024339;28;4429;-70
2023/12/09 10:59:54;;;;;;;;;;;;;;;;;;5024287;28;5028;-72
2023/12/09 11:02:19;;;;;;;;;;;;;;;;;;5009173;28;5078;-74
2023/12/09 11:04:44;;;;;;;;;;;;;;;;;;5010122;28;5153;-68
2023/12/09 11:07:10;;;;;;;;;;;;;;;;;;5020621;28;3401;-74
2023/12/09 11:09:35;;;;;;;;;;;;;;;;;;5016304;28;4994;-64
2023/12/09 11:12:00;;;;;;;;;;;;;;;;;;5022004;28;5082;-74
2023/12/09 11:14:26;;;;;;;;;;;;;;;;;;5019755;28;5027;-73
2023/12/09 11:16:51;;;;;;;;;;;;;;;;;;5020099;28;4704;-72
2023/12/09 11:19:17;;;;;;;;;;;;;;;;;;5022773;28;5054;-73
2023/12/09 11:21:43;;;;;;;;;;;;;;;;;;5013316;28;3422;-76
2023/12/09 11:24:08;;;;;;;;;;;;;;;;;;5018625;28;4513;-76
2023/12/09 11:26:33;;;;;;;;;;;;;;;;;;5016766;28;4686;-76
2023/12/09 11:28:59;;;;;;;;;;;;;;;;;;5014428;28;5136;-76
2023/12/09 11:31:50;;;;;;;;;;;;;;;;;;5024610;28;5088;-73
2023/12/09 11:34:16;;;;;;;;;;;;;;;;;;5019201;28;4558;-74
2023/12/09 11:36:42;;;;;;;;;;;;;;;;;;5020331;28;3658;-67
2023/12/09 11:39:09;;;;;;;;;;;;;;;;;;5017294;28;5097;-68
2023/12/09 11:41:35;;;;;;;;;;;;;;;;;;5020407;28;5134;-69
2023/12/09 11:44:03;;;;;;;;;;;;;;;;;;5017747;28;5107;-68
2023/12/09 11:46:29;;;;;;;;;;;;;;;;;;5018387;28;4704;-67
2023/12/09 11:48:55;;;;;;;;;;;;;;;;;;5021390;28;3185;-69
2023/12/09 11:51:21;;;;;;;;;;;;;;;;;;5009826;28;5077;-68
2023/12/09 11:53:53;;;;;;;;;;;;;;;;;;5013520;28;5121;-66
2023/12/09 11:56:19;;;;;;;;;;;;;;;;;;5022862;28;5050;-65
2023/12/09 11:58:44;;;;;;;;;;;;;;;;;;5020715;28;4689;-66
2023/12/09 12:01:09;;;;;;;;;;;;;;;;;;5017680;28;3517;-67
2023/12/09 12:03:34;;;;;;;;;;;;;;;;;;5014426;28;4897;-66
2023/12/09 12:06:00;;;;;;;;;;;;;;;;;;5016595;28;5037;-68
2023/12/09 12:08:25;;;;;;;;;;;;;;;;;;5020598;28;5051;-68
2023/12/09 12:10:50;;;;;;;;;;;;;;;;;;5013991;28;4670;-68
2023/12/09 12:13:16;;;;;;;;;;;;;;;;;;5017681;28;5094;-68
2023/12/09 12:15:41;;;;;;;;;;;;;;;;;;5022806;28;2100;-64
2023/12/09 12:18:06;;;;;;;;;;;;;;;;;;5015801;28;4672;-60
2023/12/09 12:20:32;;;;;;;;;;;;;;;;;;5014591;28;5084;-63
2023/12/09 12:22:57;;;;;;;;;;;;;;;;;;5014551;28;4512;-67
2023/12/09 12:25:26;;;;;;;;;;;;;;;;;;5024943;28;5001;-65
2023/12/09 12:27:54;;;;;;;;;;;;;;;;;;5015660;28;3323;-68
2023/12/09 12:30:20;;;;;;;;;;;;;;;;;;5019677;28;5050;-64
2023/12/09 12:32:52;;;;;;;;;;;;;;;;;;5022518;28;4675;-66
2023/12/09 12:35:18;;;;;;;;;;;;;;;;;;5019054;28;5043;-65
2023/12/09 12:37:43;;;;;;;;;;;;;;;;;;5013689;28;4932;-64
2023/12/09 12:40:09;;;;;;;;;;;;;;;;;;5023829;28;3323;-63
2023/12/09 12:42:34;;;;;;;;;;;;;;;;;;5018338;28;5086;-62
2023/12/09 12:45:00;;;;;;;;;;;;;;;;;;5011854;28;4670;-63
2023/12/09 12:47:25;;;;;;;;;;;;;;;;;;5021102;28;5118;-65
2023/12/09 12:49:50;;;;;;;;;;;;;;;;;;5018896;28;5131;-62
2023/12/09 12:52:16;;;;;;;;;;;;;;;;;;5013758;28;5124;-62
2023/12/09 12:54:41;;;;;;;;;;;;;;;;;;5020759;28;3434;-66
2023/12/09 12:57:06;;;;;;;;;;;;;;;;;;5009251;28;5238;-64
2023/12/09 12:59:32;;;;;;;;;;;;;;;;;;5015395;28;4600;-62
2023/12/09 13:01:59;;;;;;;;;;;;;;;;;;5024588;28;5119;-60
2023/12/09 13:04:24;;;;;;;;;;;;;;;;;;5018758;28;5131;-62
2023/12/09 13:06:50;;;;;;;;;;;;;;;;;;5016762;28;3480;-63
2023/12/09 13:09:15;;;;;;;;;;;;;;;;;;5019328;28;4524;-62
2023/12/09 13:11:41;;;;;;;;;;;;;;;;;;5022951;28;4861;-62
2023/12/09 13:14:06;;;;;;;;;;;;;;;;;;5016184;28;5155;-62
2023/12/09 13:16:31;;;;;;;;;;;;;;;;;;5011544;28;4539;-63
2023/12/09 13:18:57;;;;;;;;;;;;;;;;;;5012329;28;3491;-61
2023/12/09 13:21:22;;;;;;;;;;;;;;;;;;5020819;28;4885;-64
2023/12/09 13:23:47;;;;;;;;;;;;;;;;;;5018711;28;4498;-61
2023/12/09 13:26:13;;;;;;;;;;;;;;;;;;5014801;28;4553;-61
2023/12/09 13:28:39;;;;;;;;;;;;;;;;;;5018863;28;5113;-61
2023/12/09 13:31:04;;;;;;;;;;;;;;;;;;5040997;28;3605;-62
2023/12/09 13:33:30;;;;;;;;;;;;;;;;;;5014578;28;4476;-64
2023/12/09 13:35:55;;;;;;;;;;;;;;;;;;5019756;28;5036;-61
2023/12/09 13:38:20;;;;;;;;;;;;;;;;;;5019531;28;4702;-61
2023/12/09 13:40:46;;;;;;;;;;;;;;;;;;5018199;28;5351;-63
2023/12/09 13:43:11;;;;;;;;;;;;;;;;;;5022369;28;3378;-65
2023/12/09 13:45:37;;;;;;;;;;;;;;;;;;5012612;28;5243;-62
2023/12/09 13:48:03;;;;;;;;;;;;;;;;;;5015324;28;5047;-63
2023/12/09 13:50:29;;;;;;;;;;;;;;;;;;5009838;28;5300;-63
2023/12/09 13:52:54;;;;;;;;;;;;;;;;;;5020739;28;4680;-62
2023/12/09 13:55:20;;;;;;;;;;;;;;;;;;5022049;28;4542;-63
2023/12/09 13:57:46;;;;;;;;;;;;;;;;;;5021188;28;2258;-63
2023/12/09 14:00:12;;;;;;;;;;;;;;;;;;5013037;28;5029;-64
2023/12/09 14:02:38;;;;;;;;;;;;;;;;;;5013236;28;5081;-63
2023/12/09 14:05:03;;;;;;;;;;;;;;;;;;5019565;28;5096;-63
2023/12/09 14:07:29;;;;;;;;;;;;;;;;;;5011058;28;5265;-63
2023/12/09 14:09:54;;;;;;;;;;;;;;;;;;5018760;28;3518;-63
2023/12/09 14:12:19;;;;;;;;;;;;;;;;;;5016583;28;4974;-63
2023/12/09 14:14:45;;;;;;;;;;;;;;;;;;5018711;28;4725;-65
2023/12/09 14:17:11;;;;;;;;;;;;;;;;;;5010934;28;5118;-63
2023/12/09 14:19:37;;;;;;;;;;;;;;;;;;5021633;28;5053;-63
2023/12/09 14:22:02;;;;;;;;;;;;;;;;;;5012554;28;3540;-63
2023/12/09 14:24:28;;;;;;;;;;;;;;;;;;5012744;28;4493;-63
2023/12/09 14:26:53;;;;;;;;;;;;;;;;;;5021760;28;5148;-62
2023/12/09 14:29:18;;;;;;;;;;;;;;;;;;5014578;28;4600;-62
2023/12/09 14:31:44;;;;;;;;;;;;;;;;;;5020852;28;5161;-62
2023/12/09 14:34:09;;;;;;;;;;;;;;;;;;5027227;28;3303;-62
2023/12/09 14:36:34;;;;;;;;;;;;;;;;;;5012443;28;5009;-62
2023/12/09 14:39:00;;;;;;;;;;;;;;;;;;5024138;28;4569;-62
2023/12/09 14:41:25;;;;;;;;;;;;;;;;;;5030793;28;5192;-63
2023/12/09 14:43:50;;;;;;;;;;;;;;;;;;5008039;28;4706;-62
2023/12/09 14:46:15;;;;;;;;;;;;;;;;;;5016797;28;5089;-62
2023/12/09 14:48:41;;;;;;;;;;;;;;;;;;5016237;28;3421;-62
2023/12/09 14:51:07;;;;;;;;;;;;;;;;;;5021362;28;4482;-63
2023/12/09 14:53:33;;;;;;;;;;;;;;;;;;5020875;28;5143;-62
2023/12/09 14:55:58;;;;;;;;;;;;;;;;;;5012412;28;4947;-62
2023/12/09 14:58:24;;;;;;;;;;;;;;;;;;5011292;28;5056;-62
2023/12/09 15:00:49;;;;;;;;;;;;;;;;;;5015093;28;3570;-62
2023/12/09 15:03:16;;;;;;;;;;;;;;;;;;5013966;28;4736;-62
2023/12/09 15:05:41;;;;;;;;;;;;;;;;;;5022934;28;5262;-62
2023/12/09 15:08:07;;;;;;;;;;;;;;;;;;5012588;28;5124;-61
2023/12/09 15:10:32;;;;;;;;;;;;;;;;;;5016095;28;5053;-64
2023/12/09 15:12:59;;;;;;;;;;;;;;;;;;5014855;28;3387;-63
2023/12/09 15:15:27;;;;;;;;;;;;;;;;;;5013460;28;4650;-63
2023/12/09 15:17:52;;;;;;;;;;;;;;;;;;5020449;28;4963;-62
2023/12/09 15:20:18;;;;;;;;;;;;;;;;;;5015998;28;4688;-65
2023/12/09 15:22:43;;;;;;;;;;;;;;;;;;5016237;28;5265;-65
2023/12/09 15:25:08;;;;;;;;;;;;;;;;;;5016478;28;3402;-65
2023/12/09 15:27:34;;;;;;;;;;;;;;;;;;5022972;28;4676;-65
2023/12/09 15:30:03;;;;;;;;;;;;;;;;;;5015230;28;4532;-65
2023/12/09 15:32:29;;;;;;;;;;;;;;;;;;5011998;28;5114;-63
2023/12/09 15:34:54;;;;;;;;;;;;;;;;;;5010660;28;5096;-63
2023/12/09 15:37:19;;;;;;;;;;;;;;;;;;5016744;28;5068;-66
2023/12/09 15:39:45;;;;;;;;;;;;;;;;;;5002015;28;3855;-63
2023/12/09 15:42:10;;;;;;;;;;;;;;;;;;5019162;28;5390;-64
2023/12/09 15:44:35;;;;;;;;;;;;;;;;;;5017014;28;5237;-64
2023/12/09 15:47:00;;;;;;;;;;;;;;;;;;5016289;28;4559;-64
2023/12/09 15:49:26;;;;;;;;;;;;;;;;;;5018553;28;5313;-64
2023/12/09 15:51:52;;;;;;;;;;;;;;;;;;5023932;28;5257;-64
2023/12/09 15:54:17;;;;;;;;;;;;;;;;;;5014870;28;4599;-63
2023/12/09 15:56:43;;;;;;;;;;;;;;;;;;5023960;28;5023;-63
2023/12/09 15:59:08;;;;;;;;;;;;;;;;;;5019241;28;5190;-62
2023/12/09 16:01:33;;;;;;;;;;;;;;;;;;5015758;28;4986;-63
2023/12/09 16:03:59;;;;;;;;;;;;;;;;;;5017164;28;3979;-63
2023/12/09 16:06:24;;;;;;;;;;;;;;;;;;5020252;28;5048;-63
2023/12/09 16:08:49;;;;;;;;;;;;;;;;;;5017391;28;5120;-63
2023/12/09 16:11:14;;;;;;;;;;;;;;;;;;5023714;28;4880;-64
2023/12/09 16:13:40;;;;;;;;;;;;;;;;;;5023438;28;5313;-63
2023/12/09 16:16:05;;;;;;;;;;;;;;;;;;5023653;28;1639;-62
2023/12/09 16:18:32;;;;;;;;;;;;;;;;;;5018727;28;5018;-64
2023/12/09 16:20:57;;;;;;;;;;;;;;;;;;5017764;28;5117;-64
2023/12/09 16:23:22;;;;;;;;;;;;;;;;;;5016410;28;5207;-64
2023/12/09 16:25:48;;;;;;;;;;;;;;;;;;5021968;28;5067;-63
2023/12/09 16:28:13;;;;;;;;;;;;;;;;;;5014723;28;4519;-63
2023/12/09 16:30:39;;;;;;;;;;;;;;;;;;5025176;28;3256;-63
2023/12/09 16:33:04;;;;;;;;;;;;;;;;;;5022776;28;5173;-63
2023/12/09 16:35:29;;;;;;;;;;;;;;;;;;5011479;28;5059;-63
2023/12/09 16:37:55;;;;;;;;;;;;;;;;;;5024732;28;5092;-64
2023/12/09 16:40:20;;;;;;;;;;;;;;;;;;5021455;28;5135;-64
2023/12/09 16:42:45;;;;;;;;;;;;;;;;;;5010574;28;3813;-64
2023/12/09 16:45:11;;;;;;;;;;;;;;;;;;5023838;28;4651;-64
2023/12/09 16:47:39;;;;;;;;;;;;;;;;;;5020655;28;5896;-64
2023/12/09 16:50:05;;;;;;;;;;;;;;;;;;5026056;28;5000;-64
2023/12/09 16:52:30;;;;;;;;;;;;;;;;;;5020305;28;5000;-64
2023/12/09 16:54:56;;;;;;;;;;;;;;;;;;5025450;28;3425;-64
2023/12/09 16:57:21;;;;;;;;;;;;;;;;;;5019810;28;5137;-64
2023/12/09 16:59:46;;;;;;;;;;;;;;;;;;5019041;28;5178;-64
2023/12/09 17:02:11;;;;;;;;;;;;;;;;;;5022708;28;4704;-64
2023/12/09 17:04:37;;;;;;;;;;;;;;;;;;5045662;28;5073;-64
2023/12/09 17:07:03;;;;;;;;;;;;;;;;;;5019917;28;1097;-64
2023/12/09 17:09:28;;;;;;;;;;;;;;;;;;5015008;28;4850;-64
2023/12/09 17:11:53;;;;;;;;;;;;;;;;;;5023554;28;5135;-64
2023/12/09 17:14:19;;;;;;;;;;;;;;;;;;5019968;28;5224;-63
2023/12/09 17:16:45;;;;;;;;;;;;;;;;;;5022555;28;4687;-63
2023/12/09 17:19:10;;;;;;;;;;;;;;;;;;5018964;28;3311;-63
2023/12/09 17:21:36;;;;;;;;;;;;;;;;;;5012186;28;4830;-63
2023/12/09 17:24:01;;;;;;;;;;;;;;;;;;5010125;28;5092;-63
2023/12/09 17:26:26;;;;;;;;;;;;;;;;;;5017015;28;5164;-63
2023/12/09 17:28:52;;;;;;;;;;;;;;;;;;5025139;28;4507;-63
2023/12/09 17:31:17;;;;;;;;;;;;;;;;;;5017744;28;4725;-66
2023/12/09 17:33:43;;;;;;;;;;;;;;;;;;5015975;28;3490;-63
2023/12/09 17:36:08;;;;;;;;;;;;;;;;;;5016469;28;5117;-65
2023/12/09 17:38:33;;;;;;;;;;;;;;;;;;5015762;28;5139;-64
2023/12/09 17:40:59;;;;;;;;;;;;;;;;;;5016235;28;5083;-65
2023/12/09 17:43:24;;;;;;;;;;;;;;;;;;5022772;28;5048;-68
2023/12/09 17:45:49;;;;;;;;;;;;;;;;;;5013022;28;4150;-64
2023/12/09 17:48:15;;;;;;;;;;;;;;;;;;5023321;28;4703;-65
2023/12/09 17:50:40;;;;;;;;;;;;;;;;;;5023033;28;5521;-63
2023/12/09 17:53:06;;;;;;;;;;;;;;;;;;5017539;28;5478;-63
2023/12/09 17:55:31;;;;;;;;;;;;;;;;;;5022272;28;5200;-66
2023/12/09 17:57:57;;;;;;;;;;;;;;;;;;5022128;28;3401;-64
2023/12/09 18:00:23;;;;;;;;;;;;;;;;;;5013533;28;5457;-66
2023/12/09 18:02:48;;;;;;;;;;;;;;;;;;5025914;28;4835;-66
2023/12/09 18:05:13;;;;;;;;;;;;;;;;;;5015720;28;5203;-64
2023/12/09 18:07:39;;;;;;;;;;;;;;;;;;5024890;28;5160;-70
2023/12/09 18:10:04;;;;;;;;;;;;;;;;;;5017238;28;3893;-67
2023/12/09 18:12:30;;;;;;;;;;;;;;;;;;5016888;28;5256;-65
2023/12/09 18:14:55;;;;;;;;;;;;;;;;;;5015271;28;4969;-65
2023/12/09 18:17:20;;;;;;;;;;;;;;;;;;5023292;28;4489;-65
2023/12/09 18:19:46;;;;;;;;;;;;;;;;;;5022602;28;4539;-71
2023/12/09 18:22:12;;;;;;;;;;;;;;;;;;5021258;28;3777;-66
2023/12/09 18:24:37;;;;;;;;;;;;;;;;;;5065808;28;4392;-65
2023/12/09 18:27:03;;;;;;;;;;;;;;;;;;5064586;28;5065;-66
2023/12/09 18:29:28;;;;;;;;;;;;;;;;;;5053433;28;5046;-63
2023/12/09 18:31:53;;;;;;;;;;;;;;;;;;5055586;28;5132;-64
2023/12/09 18:34:18;;;;;;;;;;;;;;;;;;5053285;28;5152;-67
2023/12/09 18:36:44;;;;;;;;;;;;;;;;;;5056001;28;3128;-67
2023/12/09 18:39:09;;;;;;;;;;;;;;;;;;5052059;28;4440;-68
2023/12/09 18:41:36;;;;;;;;;;;;;;;;;;5060494;28;5066;-67
2023/12/09 18:44:02;;;;;;;;;;;;;;;;;;5049094;28;5112;-70
2023/12/09 18:46:28;;;;;;;;;;;;;;;;;;5056153;28;5076;-69
2023/12/09 18:48:54;;;;;;;;;;;;;;;;;;5067701;28;1151;-71
2023/12/09 18:51:19;;;;;;;;;;;;;;;;;;5057126;28;5024;-68
2023/12/09 18:53:45;;;;;;;;;;;;;;;;;;5064300;28;4754;-71
2023/12/09 18:56:10;;;;;;;;;;;;;;;;;;5058885;28;5132;-68
2023/12/09 18:58:35;;;;;;;;;;;;;;;;;;5059957;28;5011;-70
2023/12/09 19:01:01;;;;;;;;;;;;;;;;;;5064527;28;3424;-63
2023/12/09 19:03:26;;;;;;;;;;;;;;;;;;5056632;28;5123;-64
2023/12/09 19:05:51;;;;;;;;;;;;;;;;;;5057251;28;5163;-64
2023/12/09 19:08:17;;;;;;;;;;;;;;;;;;5060072;28;4702;-62
2023/12/09 19:10:42;;;;;;;;;;;;;;;;;;5056160;28;4532;-64
2023/12/09 19:13:07;;;;;;;;;;;;;;;;;;5060056;28;3390;-72
2023/12/09 19:15:33;;;;;;;;;;;;;;;;;;5063042;28;4985;-67
2023/12/09 19:17:58;;;;;;;;;;;;;;;;;;5065347;28;5066;-67
2023/12/09 19:20:23;;;;;;;;;;;;;;;;;;5060945;28;5068;-67
2023/12/09 19:22:49;;;;;;;;;;;;;;;;;;5066903;28;4730;-66
2023/12/09 19:25:14;;;;;;;;;;;;;;;;;;5060548;28;5075;-67
2023/12/09 19:27:40;;;;;;;;;;;;;;;;;;5057969;28;3528;-70
2023/12/09 19:30:06;;;;;;;;;;;;;;;;;;5060684;28;4514;-69
2023/12/09 19:32:31;;;;;;;;;;;;;;;;;;5062510;28;4686;-71
2023/12/09 19:34:56;;;;;;;;;;;;;;;;;;5055693;28;4709;-69
2023/12/09 19:37:25;;;;;;;;;;;;;;;;;;5056640;28;5056;-68
2023/12/09 19:39:50;;;;;;;;;;;;;;;;;;5058910;28;3569;-69
2023/12/09 19:42:16;;;;;;;;;;;;;;;;;;5060215;28;5019;-69
2023/12/09 19:44:41;;;;;;;;;;;;;;;;;;5050722;28;4885;-62
2023/12/09 19:47:07;;;;;;;;;;;;;;;;;;5061107;28;5080;-64
2023/12/09 19:49:32;;;;;;;;;;;;;;;;;;5059299;28;4513;-69
2023/12/09 19:51:57;;;;;;;;;;;;;;;;;;5066215;28;5058;-68
2023/12/09 19:54:23;;;;;;;;;;;;;;;;;;5059354;28;4908;-64
2023/12/09 19:56:49;;;;;;;;;;;;;;;;;;5062688;28;5122;-64
2023/12/09 19:59:14;;;;;;;;;;;;;;;;;;5056683;28;5063;-63
2023/12/09 20:01:39;;;;;;;;;;;;;;;;;;5054606;28;4640;-61
2023/12/09 20:04:05;;;;;;;;;;;;;;;;;;5056725;28;3462;-66
2023/12/09 20:06:31;;;;;;;;;;;;;;;;;;5053647;28;4451;-61
2023/12/09 20:08:56;;;;;;;;;;;;;;;;;;5057168;28;5042;-61
2023/12/09 20:11:21;;;;;;;;;;;;;;;;;;5061061;28;4477;-63
2023/12/09 20:13:47;;;;;;;;;;;;;;;;;;5054414;28;5017;-61
2023/12/09 20:16:12;;;;;;;;;;;;;;;;;;5061127;28;4568;-66
2023/12/09 20:18:37;;;;;;;;;;;;;;;;;;5058523;28;3709;-63
2023/12/09 20:21:02;;;;;;;;;;;;;;;;;;5060290;28;5172;-62
2023/12/09 20:23:28;;;;;;;;;;;;;;;;;;5056346;28;5005;-62
2023/12/09 20:25:53;;;;;;;;;;;;;;;;;;5061273;28;4914;-62
2023/12/09 20:28:18;;;;;;;;;;;;;;;;;;5060965;28;5019;-62
2023/12/09 20:30:44;;;;;;;;;;;;;;;;;;5059664;28;3522;-63
2023/12/09 20:33:09;;;;;;;;;;;;;;;;;;5055736;28;5007;-61
2023/12/09 20:35:35;;;;;;;;;;;;;;;;;;5060326;28;5066;-74
2023/12/09 20:38:01;;;;;;;;;;;;;;;;;;5060739;28;5209;-67
2023/12/09 20:40:27;;;;;;;;;;;;;;;;;;5069899;28;5024;-63
2023/12/09 20:42:52;;;;;;;;;;;;;;;;;;5057212;28;3566;-65
2023/12/09 20:45:17;;;;;;;;;;;;;;;;;;5049628;28;4921;-65
2023/12/09 20:47:43;;;;;;;;;;;;;;;;;;5060463;28;5339;-67
2023/12/09 20:50:08;;;;;;;;;;;;;;;;;;5058361;28;4505;-65
2023/12/09 20:52:33;;;;;;;;;;;;;;;;;;5067474;28;5123;-66
2023/12/09 20:54:59;;;;;;;;;;;;;;;;;;5056975;28;3445;-64
2023/12/09 20:57:24;;;;;;;;;;;;;;;;;;5060306;28;4907;-61
2023/12/09 20:59:49;;;;;;;;;;;;;;;;;;5061037;28;4984;-62
2023/12/09 21:02:15;;;;;;;;;;;;;;;;;;5060700;28;5166;-63
2023/12/09 21:04:44;;;;;;;;;;;;;;;;;;5070406;28;4999;-60
2023/12/09 21:07:09;;;;;;;;;;;;;;;;;;5059580;28;4011;-61
2023/12/09 21:09:36;;;;;;;;;;;;;;;;;;5061007;28;5122;-62
2023/12/09 21:12:02;;;;;;;;;;;;;;;;;;5052701;28;4793;-64
2023/12/09 21:14:28;;;;;;;;;;;;;;;;;;5053875;28;4525;-63
2023/12/09 21:16:53;;;;;;;;;;;;;;;;;;5061240;28;5060;-62
2023/12/09 21:19:18;;;;;;;;;;;;;;;;;;5061737;28;4515;-63
2023/12/09 21:21:44;;;;;;;;;;;;;;;;;;5065516;28;1176;-65
2023/12/09 21:24:09;;;;;;;;;;;;;;;;;;5061028;28;5117;-63
2023/12/09 21:26:36;;;;;;;;;;;;;;;;;;5054283;28;4889;-63
2023/12/09 21:29:02;;;;;;;;;;;;;;;;;;5055897;28;5159;-62
2023/12/09 21:31:27;;;;;;;;;;;;;;;;;;5056016;28;4676;-63
2023/12/09 21:33:52;;;;;;;;;;;;;;;;;;5059304;28;2391;-62
2023/12/09 21:36:18;;;;;;;;;;;;;;;;;;5060774;28;5121;-63
2023/12/09 21:38:43;;;;;;;;;;;;;;;;;;5058194;28;4914;-62
2023/12/09 21:41:09;;;;;;;;;;;;;;;;;;5056328;28;5241;-64
2023/12/09 21:43:37;;;;;;;;;;;;;;;;;;5054379;28;5219;-64
2023/12/09 21:46:02;;;;;;;;;;;;;;;;;;5051551;28;3123;-63
2023/12/09 21:48:28;;;;;;;;;;;;;;;;;;5059343;28;4678;-61
2023/12/09 21:50:53;;;;;;;;;;;;;;;;;;5049215;28;5115;-61
2023/12/09 21:53:18;;;;;;;;;;;;;;;;;;5049400;28;5323;-64
2023/12/09 21:55:44;;;;;;;;;;;;;;;;;;5054725;28;4932;-62
2023/12/09 21:58:10;;;;;;;;;;;;;;;;;;5060798;28;3341;-64
2023/12/09 22:00:35;;;;;;;;;;;;;;;;;;5048863;28;4988;-64
2023/12/09 22:03:01;;;;;;;;;;;;;;;;;;5062726;28;4684;-62
2023/12/09 22:05:26;;;;;;;;;;;;;;;;;;5061835;28;5178;-67
2023/12/09 22:07:51;;;;;;;;;;;;;;;;;;5055759;28;5064;-64
2023/12/09 22:10:17;;;;;;;;;;;;;;;;;;5061966;28;5102;-62
2023/12/09 22:12:42;;;;;;;;;;;;;;;;;;5057460;28;1344;-61
2023/12/09 22:15:08;;;;;;;;;;;;;;;;;;5053973;28;4484;-62
2023/12/09 22:17:33;;;;;;;;;;;;;;;;;;5060025;28;4524;-65
2023/12/09 22:19:58;;;;;;;;;;;;;;;;;;5053655;28;5129;-62
2023/12/09 22:22:24;;;;;;;;;;;;;;;;;;5060234;28;4684;-61
2023/12/09 22:24:49;;;;;;;;;;;;;;;;;;5069547;28;1249;-64
2023/12/09 22:27:15;;;;;;;;;;;;;;;;;;5060881;28;5024;-69
2023/12/09 22:29:40;;;;;;;;;;;;;;;;;;5055795;28;4724;-73
2023/12/09 22:32:05;;;;;;;;;;;;;;;;;;5061663;28;5155;-64
2023/12/09 22:34:31;;;;;;;;;;;;;;;;;;5063561;28;5918;-62
2023/12/09 22:36:56;;;;;;;;;;;;;;;;;;5054331;28;3386;-62
2023/12/09 22:39:22;;;;;;;;;;;;;;;;;;5061943;28;5229;-66
2023/12/09 22:41:47;;;;;;;;;;;;;;;;;;5065262;28;4954;-63
2023/12/09 22:44:13;;;;;;;;;;;;;;;;;;5061970;28;5117;-65
2023/12/09 22:46:38;;;;;;;;;;;;;;;;;;5057321;28;4492;-67
2023/12/09 22:49:03;;;;;;;;;;;;;;;;;;5065885;28;3597;-64
2023/12/09 22:51:29;;;;;;;;;;;;;;;;;;5064960;28;5351;-70
2023/12/09 22:53:54;;;;;;;;;;;;;;;;;;5055836;28;4462;-64
2023/12/09 22:56:20;;;;;;;;;;;;;;;;;;5060236;28;5086;-62
2023/12/09 22:58:46;;;;;;;;;;;;;;;;;;5054126;28;4968;-66
2023/12/09 23:01:11;;;;;;;;;;;;;;;;;;5055005;28;3424;-63
2023/12/09 23:03:36;;;;;;;;;;;;;;;;;;5050086;28;5000;-65
2023/12/09 23:06:02;;;;;;;;;;;;;;;;;;5080116;28;5820;-65
2023/12/09 23:08:28;;;;;;;;;;;;;;;;;;5051424;28;4483;-66
2023/12/09 23:10:53;;;;;;;;;;;;;;;;;;5059265;28;5163;-65
2023/12/09 23:13:18;;;;;;;;;;;;;;;;;;5057089;28;4601;-64
2023/12/09 23:15:43;;;;;;;;;;;;;;;;;;5052605;28;3323;-69
2023/12/09 23:18:09;;;;;;;;;;;;;;;;;;5058249;28;4960;-65
2023/12/09 23:20:34;;;;;;;;;;;;;;;;;;5058463;28;5549;-64
2023/12/09 23:22:59;;;;;;;;;;;;;;;;;;5056579;28;5044;-65
2023/12/09 23:25:25;;;;;;;;;;;;;;;;;;5061507;28;4957;-64
2023/12/09 23:27:50;;;;;;;;;;;;;;;;;;5058391;28;3386;-63
2023/12/09 23:30:15;;;;;;;;;;;;;;;;;;5063041;28;5166;-63
2023/12/09 23:32:41;;;;;;;;;;;;;;;;;;5056255;28;4942;-63
2023/12/09 23:35:06;;;;;;;;;;;;;;;;;;5056754;28;5366;-68
2023/12/09 23:37:31;;;;;;;;;;;;;;;;;;5058538;28;4537;-63
2023/12/09 23:39:57;;;;;;;;;;;;;;;;;;5056346;28;3443;-63
2023/12/09 23:42:22;;;;;;;;;;;;;;;;;;5059765;28;5018;-64
2023/12/09 23:44:47;;;;;;;;;;;;;;;;;;5052085;28;5311;-63
2023/12/09 23:47:12;;;;;;;;;;;;;;;;;;5049697;28;5013;-63
2023/12/09 23:49:38;;;;;;;;;;;;;;;;;;5049356;28;5193;-63
2023/12/09 23:52:03;;;;;;;;;;;;;;;;;;5062700;28;4988;-63
2023/12/09 23:54:30;;;;;;;;;;;;;;;;;;5060325;28;5183;-63
2023/12/09 23:56:55;;;;;;;;;;;;;;;;;;5058630;28;5020;-64
2023/12/09 23:59:20;;;;;;;;;;;;;;;;;;5054691;28;4486;-63
